sensor_id;sensor_type;location;lat;lon;timestamp;P1;durP1;ratioP1;P2;durP2;ratioP2
43883;SDS011;71973;52.018;5.810;2023-09-08T00:02:04;5.97;;;4.55;;
43883;SDS011;71973;52.018;5.810;2023-09-08T00:04:30;7.68;;;4.70;;
43883;SDS011;71973;52.018;5.810;2023-09-08T00:06:57;7.90;;;4.57;;
43883;SDS011;71973;52.018;5.810;2023-09-08T00:09:23;7.30;;;5.13;;
43883;SDS011;71973;52.018;5.810;2023-09-08T00:11:49;7.15;;;4.22;;
43883;SDS011;71973;52.018;5.810;2023-09-08T00:14:15;7.32;;;5.20;;
43883;SDS011;71973;52.018;5.810;2023-09-08T00:16:41;8.07;;;4.60;;
43883;SDS011;71973;52.018;5.810;2023-09-08T00:19:08;4.78;;;4.20;;
43883;SDS011;71973;52.018;5.810;2023-09-08T00:21:33;5.35;;;4.00;;
43883;SDS011;71973;52.018;5.810;2023-09-08T00:23:59;7.47;;;4.03;;
43883;SDS011;71973;52.018;5.810;2023-09-08T00:26:26;9.88;;;4.60;;
43883;SDS011;71973;52.018;5.810;2023-09-08T00:28:52;8.90;;;4.60;;
43883;SDS011;71973;52.018;5.810;2023-09-08T00:31:18;10.60;;;4.50;;
43883;SDS011;71973;52.018;5.810;2023-09-08T00:33:43;6.55;;;5.03;;
43883;SDS011;71973;52.018;5.810;2023-09-08T00:36:09;5.97;;;4.53;;
43883;SDS011;71973;52.018;5.810;2023-09-08T00:38:35;9.20;;;5.05;;
43883;SDS011;71973;52.018;5.810;2023-09-08T00:41:01;8.40;;;4.57;;
43883;SDS011;71973;52.018;5.810;2023-09-08T00:43:27;7.00;;;4.57;;
43883;SDS011;71973;52.018;5.810;2023-09-08T00:45:54;6.78;;;4.63;;
43883;SDS011;71973;52.018;5.810;2023-09-08T00:48:20;6.40;;;4.25;;
43883;SDS011;71973;52.018;5.810;2023-09-08T00:50:46;7.78;;;4.57;;
43883;SDS011;71973;52.018;5.810;2023-09-08T00:53:12;10.05;;;4.63;;
43883;SDS011;71973;52.018;5.810;2023-09-08T00:58:04;9.10;;;4.32;;
43883;SDS011;71973;52.018;5.810;2023-09-08T01:00:30;5.90;;;4.20;;
43883;SDS011;71973;52.018;5.810;2023-09-08T01:02:57;7.97;;;4.47;;
43883;SDS011;71973;52.018;5.810;2023-09-08T01:05:23;6.43;;;3.80;;
43883;SDS011;71973;52.018;5.810;2023-09-08T01:07:49;6.28;;;4.32;;
43883;SDS011;71973;52.018;5.810;2023-09-08T01:10:16;8.77;;;4.75;;
43883;SDS011;71973;52.018;5.810;2023-09-08T01:12:42;6.35;;;4.28;;
43883;SDS011;71973;52.018;5.810;2023-09-08T01:15:08;8.20;;;4.72;;
43883;SDS011;71973;52.018;5.810;2023-09-08T01:17:34;9.57;;;4.85;;
43883;SDS011;71973;52.018;5.810;2023-09-08T01:20:02;7.60;;;5.18;;
43883;SDS011;71973;52.018;5.810;2023-09-08T01:27:38;7.88;;;4.85;;
43883;SDS011;71973;52.018;5.810;2023-09-08T01:30:05;7.25;;;4.95;;
43883;SDS011;71973;52.018;5.810;2023-09-08T01:32:32;7.45;;;4.88;;
43883;SDS011;71973;52.018;5.810;2023-09-08T01:34:58;5.90;;;4.40;;
43883;SDS011;71973;52.018;5.810;2023-09-08T01:37:24;8.45;;;4.40;;
43883;SDS011;71973;52.018;5.810;2023-09-08T01:39:50;5.85;;;4.47;;
43883;SDS011;71973;52.018;5.810;2023-09-08T01:42:16;6.38;;;4.28;;
43883;SDS011;71973;52.018;5.810;2023-09-08T01:44:42;8.38;;;4.82;;
43883;SDS011;71973;52.018;5.810;2023-09-08T01:47:08;6.25;;;4.45;;
43883;SDS011;71973;52.018;5.810;2023-09-08T01:49:34;6.53;;;4.43;;
43883;SDS011;71973;52.018;5.810;2023-09-08T01:51:59;7.82;;;4.95;;
43883;SDS011;71973;52.018;5.810;2023-09-08T01:54:25;7.20;;;4.90;;
43883;SDS011;71973;52.018;5.810;2023-09-08T01:56:51;5.97;;;4.30;;
43883;SDS011;71973;52.018;5.810;2023-09-08T01:59:17;13.23;;;5.22;;
43883;SDS011;71973;52.018;5.810;2023-09-08T02:01:43;7.03;;;5.05;;
43883;SDS011;71973;52.018;5.810;2023-09-08T02:04:09;7.95;;;5.13;;
43883;SDS011;71973;52.018;5.810;2023-09-08T02:06:35;8.18;;;5.25;;
43883;SDS011;71973;52.018;5.810;2023-09-08T02:09:01;8.40;;;5.35;;
43883;SDS011;71973;52.018;5.810;2023-09-08T02:11:27;9.48;;;5.07;;
43883;SDS011;71973;52.018;5.810;2023-09-08T02:13:53;7.68;;;4.60;;
43883;SDS011;71973;52.018;5.810;2023-09-08T02:16:19;7.82;;;4.50;;
43883;SDS011;71973;52.018;5.810;2023-09-08T02:18:45;5.57;;;4.53;;
43883;SDS011;71973;52.018;5.810;2023-09-08T02:21:11;12.00;;;4.70;;
43883;SDS011;71973;52.018;5.810;2023-09-08T02:26:03;8.93;;;4.85;;
43883;SDS011;71973;52.018;5.810;2023-09-08T02:28:29;11.30;;;5.22;;
43883;SDS011;71973;52.018;5.810;2023-09-08T02:30:55;6.47;;;4.68;;
43883;SDS011;71973;52.018;5.810;2023-09-08T02:33:21;6.75;;;4.97;;
43883;SDS011;71973;52.018;5.810;2023-09-08T02:35:47;6.63;;;4.80;;
43883;SDS011;71973;52.018;5.810;2023-09-08T02:38:13;10.90;;;4.93;;
43883;SDS011;71973;52.018;5.810;2023-09-08T02:40:39;9.63;;;5.07;;
43883;SDS011;71973;52.018;5.810;2023-09-08T02:43:05;6.13;;;4.95;;
43883;SDS011;71973;52.018;5.810;2023-09-08T02:45:31;6.07;;;4.72;;
43883;SDS011;71973;52.018;5.810;2023-09-08T02:47:57;7.15;;;4.50;;
43883;SDS011;71973;52.018;5.810;2023-09-08T02:50:22;6.45;;;5.10;;
43883;SDS011;71973;52.018;5.810;2023-09-08T02:52:49;11.43;;;5.60;;
43883;SDS011;71973;52.018;5.810;2023-09-08T02:55:15;8.20;;;5.35;;
43883;SDS011;71973;52.018;5.810;2023-09-08T02:57:41;8.02;;;5.47;;
43883;SDS011;71973;52.018;5.810;2023-09-08T03:00:07;8.50;;;4.50;;
43883;SDS011;71973;52.018;5.810;2023-09-08T03:02:33;6.90;;;4.85;;
43883;SDS011;71973;52.018;5.810;2023-09-08T03:04:59;5.95;;;4.75;;
43883;SDS011;71973;52.018;5.810;2023-09-08T03:07:25;6.57;;;5.13;;
43883;SDS011;71973;52.018;5.810;2023-09-08T03:09:51;6.47;;;4.55;;
43883;SDS011;71973;52.018;5.810;2023-09-08T03:12:17;11.73;;;5.15;;
43883;SDS011;71973;52.018;5.810;2023-09-08T03:14:43;9.23;;;5.37;;
43883;SDS011;71973;52.018;5.810;2023-09-08T03:17:09;7.53;;;4.78;;
43883;SDS011;71973;52.018;5.810;2023-09-08T03:19:35;7.93;;;5.35;;
43883;SDS011;71973;52.018;5.810;2023-09-08T03:22:01;6.47;;;4.35;;
43883;SDS011;71973;52.018;5.810;2023-09-08T03:24:27;9.38;;;5.53;;
43883;SDS011;71973;52.018;5.810;2023-09-08T03:26:53;7.53;;;5.03;;
43883;SDS011;71973;52.018;5.810;2023-09-08T03:29:19;8.90;;;5.32;;
43883;SDS011;71973;52.018;5.810;2023-09-08T03:31:45;7.65;;;5.15;;
43883;SDS011;71973;52.018;5.810;2023-09-08T03:34:11;8.10;;;5.03;;
43883;SDS011;71973;52.018;5.810;2023-09-08T03:36:38;10.45;;;5.72;;
43883;SDS011;71973;52.018;5.810;2023-09-08T03:39:04;6.95;;;5.28;;
43883;SDS011;71973;52.018;5.810;2023-09-08T03:41:30;5.47;;;4.88;;
43883;SDS011;71973;52.018;5.810;2023-09-08T03:43:56;8.27;;;5.40;;
43883;SDS011;71973;52.018;5.810;2023-09-08T03:46:21;6.57;;;5.25;;
43883;SDS011;71973;52.018;5.810;2023-09-08T03:48:49;6.55;;;4.75;;
43883;SDS011;71973;52.018;5.810;2023-09-08T03:51:15;9.18;;;5.90;;
43883;SDS011;71973;52.018;5.810;2023-09-08T03:53:41;7.22;;;5.32;;
43883;SDS011;71973;52.018;5.810;2023-09-08T03:56:07;6.65;;;5.43;;
43883;SDS011;71973;52.018;5.810;2023-09-08T03:58:33;8.30;;;4.88;;
43883;SDS011;71973;52.018;5.810;2023-09-08T04:00:59;8.20;;;5.43;;
43883;SDS011;71973;52.018;5.810;2023-09-08T04:03:25;6.80;;;4.95;;
43883;SDS011;71973;52.018;5.810;2023-09-08T04:05:51;10.77;;;4.78;;
43883;SDS011;71973;52.018;5.810;2023-09-08T04:08:17;8.18;;;5.70;;
43883;SDS011;71973;52.018;5.810;2023-09-08T04:10:43;8.30;;;5.18;;
43883;SDS011;71973;52.018;5.810;2023-09-08T04:13:09;7.90;;;5.22;;
43883;SDS011;71973;52.018;5.810;2023-09-08T04:15:34;6.70;;;5.05;;
43883;SDS011;71973;52.018;5.810;2023-09-08T04:18:00;8.02;;;5.43;;
43883;SDS011;71973;52.018;5.810;2023-09-08T04:20:27;6.20;;;4.82;;
43883;SDS011;71973;52.018;5.810;2023-09-08T04:22:53;6.20;;;5.05;;
43883;SDS011;71973;52.018;5.810;2023-09-08T04:25:19;6.82;;;4.78;;
43883;SDS011;71973;52.018;5.810;2023-09-08T04:27:45;6.18;;;5.00;;
43883;SDS011;71973;52.018;5.810;2023-09-08T04:30:11;6.25;;;5.35;;
43883;SDS011;71973;52.018;5.810;2023-09-08T04:32:37;6.53;;;5.07;;
43883;SDS011;71973;52.018;5.810;2023-09-08T04:37:29;7.72;;;5.43;;
43883;SDS011;71973;52.018;5.810;2023-09-08T04:39:56;9.15;;;5.68;;
43883;SDS011;71973;52.018;5.810;2023-09-08T04:42:22;9.23;;;5.43;;
43883;SDS011;71973;52.018;5.810;2023-09-08T04:44:48;6.28;;;5.13;;
43883;SDS011;71973;52.018;5.810;2023-09-08T04:47:14;6.13;;;5.07;;
43883;SDS011;71973;52.018;5.810;2023-09-08T04:49:40;6.68;;;5.18;;
43883;SDS011;71973;52.018;5.810;2023-09-08T04:52:06;5.85;;;4.75;;
43883;SDS011;71973;52.018;5.810;2023-09-08T04:54:32;8.60;;;5.20;;
43883;SDS011;71973;52.018;5.810;2023-09-08T04:56:58;7.10;;;5.47;;
43883;SDS011;71973;52.018;5.810;2023-09-08T04:59:24;6.63;;;5.28;;
43883;SDS011;71973;52.018;5.810;2023-09-08T05:01:50;6.95;;;4.90;;
43883;SDS011;71973;52.018;5.810;2023-09-08T05:04:16;7.85;;;5.47;;
43883;SDS011;71973;52.018;5.810;2023-09-08T05:06:43;10.75;;;4.88;;
43883;SDS011;71973;52.018;5.810;2023-09-08T05:09:09;6.90;;;5.25;;
43883;SDS011;71973;52.018;5.810;2023-09-08T05:11:35;7.18;;;5.18;;
43883;SDS011;71973;52.018;5.810;2023-09-08T05:14:01;7.05;;;5.25;;
43883;SDS011;71973;52.018;5.810;2023-09-08T05:16:27;7.22;;;5.18;;
43883;SDS011;71973;52.018;5.810;2023-09-08T05:19:11;8.05;;;5.70;;
43883;SDS011;71973;52.018;5.810;2023-09-08T05:21:38;9.15;;;5.60;;
43883;SDS011;71973;52.018;5.810;2023-09-08T05:24:05;8.88;;;5.63;;
43883;SDS011;71973;52.018;5.810;2023-09-08T05:26:31;7.30;;;5.65;;
43883;SDS011;71973;52.018;5.810;2023-09-08T05:28:57;7.13;;;5.22;;
43883;SDS011;71973;52.018;5.810;2023-09-08T05:31:23;6.78;;;5.13;;
43883;SDS011;71973;52.018;5.810;2023-09-08T05:33:49;9.30;;;5.07;;
43883;SDS011;71973;52.018;5.810;2023-09-08T05:36:15;9.45;;;5.65;;
43883;SDS011;71973;52.018;5.810;2023-09-08T05:38:41;8.48;;;5.40;;
43883;SDS011;71973;52.018;5.810;2023-09-08T05:41:06;9.00;;;5.28;;
43883;SDS011;71973;52.018;5.810;2023-09-08T05:43:32;7.57;;;5.32;;
43883;SDS011;71973;52.018;5.810;2023-09-08T05:45:58;8.55;;;5.00;;
43883;SDS011;71973;52.018;5.810;2023-09-08T05:48:24;11.05;;;6.00;;
43883;SDS011;71973;52.018;5.810;2023-09-08T05:50:50;8.27;;;5.60;;
43883;SDS011;71973;52.018;5.810;2023-09-08T05:53:16;7.93;;;5.28;;
43883;SDS011;71973;52.018;5.810;2023-09-08T05:55:42;7.78;;;5.00;;
43883;SDS011;71973;52.018;5.810;2023-09-08T05:58:08;9.13;;;5.57;;
43883;SDS011;71973;52.018;5.810;2023-09-08T06:00:34;8.13;;;5.32;;
43883;SDS011;71973;52.018;5.810;2023-09-08T06:03:00;9.55;;;5.72;;
43883;SDS011;71973;52.018;5.810;2023-09-08T06:05:26;7.43;;;5.55;;
43883;SDS011;71973;52.018;5.810;2023-09-08T06:07:52;6.13;;;5.10;;
43883;SDS011;71973;52.018;5.810;2023-09-08T06:10:18;7.90;;;4.72;;
43883;SDS011;71973;52.018;5.810;2023-09-08T06:12:44;6.97;;;5.50;;
43883;SDS011;71973;52.018;5.810;2023-09-08T06:15:10;8.40;;;5.10;;
43883;SDS011;71973;52.018;5.810;2023-09-08T06:17:36;6.07;;;5.00;;
43883;SDS011;71973;52.018;5.810;2023-09-08T06:20:02;6.85;;;5.20;;
43883;SDS011;71973;52.018;5.810;2023-09-08T06:22:28;8.68;;;5.55;;
43883;SDS011;71973;52.018;5.810;2023-09-08T06:24:54;8.20;;;4.95;;
43883;SDS011;71973;52.018;5.810;2023-09-08T06:27:19;10.98;;;5.18;;
43883;SDS011;71973;52.018;5.810;2023-09-08T06:29:46;7.55;;;5.47;;
43883;SDS011;71973;52.018;5.810;2023-09-08T06:32:12;7.40;;;5.10;;
43883;SDS011;71973;52.018;5.810;2023-09-08T06:34:38;5.85;;;4.72;;
43883;SDS011;71973;52.018;5.810;2023-09-08T06:37:04;7.25;;;5.15;;
43883;SDS011;71973;52.018;5.810;2023-09-08T06:39:30;7.63;;;5.18;;
43883;SDS011;71973;52.018;5.810;2023-09-08T06:41:56;7.80;;;5.35;;
43883;SDS011;71973;52.018;5.810;2023-09-08T06:44:22;5.57;;;4.45;;
43883;SDS011;71973;52.018;5.810;2023-09-08T06:46:48;7.43;;;4.80;;
43883;SDS011;71973;52.018;5.810;2023-09-08T06:49:13;8.05;;;5.10;;
43883;SDS011;71973;52.018;5.810;2023-09-08T06:51:39;6.03;;;4.65;;
43883;SDS011;71973;52.018;5.810;2023-09-08T06:54:05;8.35;;;4.88;;
43883;SDS011;71973;52.018;5.810;2023-09-08T06:58:58;7.93;;;5.13;;
43883;SDS011;71973;52.018;5.810;2023-09-08T07:01:24;7.28;;;5.00;;
43883;SDS011;71973;52.018;5.810;2023-09-08T07:06:16;6.93;;;5.07;;
43883;SDS011;71973;52.018;5.810;2023-09-08T07:08:42;7.05;;;4.70;;
43883;SDS011;71973;52.018;5.810;2023-09-08T07:11:08;8.80;;;5.32;;
43883;SDS011;71973;52.018;5.810;2023-09-08T07:13:34;10.25;;;5.38;;
43883;SDS011;71973;52.018;5.810;2023-09-08T07:16:00;7.45;;;5.38;;
43883;SDS011;71973;52.018;5.810;2023-09-08T07:18:26;6.60;;;5.15;;
43883;SDS011;71973;52.018;5.810;2023-09-08T07:20:53;6.55;;;5.10;;
43883;SDS011;71973;52.018;5.810;2023-09-08T07:23:19;7.85;;;4.50;;
43883;SDS011;71973;52.018;5.810;2023-09-08T07:25:48;6.57;;;4.82;;
43883;SDS011;71973;52.018;5.810;2023-09-08T07:28:14;6.95;;;4.95;;
43883;SDS011;71973;52.018;5.810;2023-09-08T07:33:06;6.65;;;4.68;;
43883;SDS011;71973;52.018;5.810;2023-09-08T07:35:32;5.95;;;4.65;;
43883;SDS011;71973;52.018;5.810;2023-09-08T07:38:01;5.97;;;4.82;;
43883;SDS011;71973;52.018;5.810;2023-09-08T07:40:27;10.40;;;5.03;;
43883;SDS011;71973;52.018;5.810;2023-09-08T07:42:53;6.55;;;5.35;;
43883;SDS011;71973;52.018;5.810;2023-09-08T07:45:19;6.85;;;4.78;;
43883;SDS011;71973;52.018;5.810;2023-09-08T07:47:45;6.07;;;4.93;;
43883;SDS011;71973;52.018;5.810;2023-09-08T07:50:21;6.40;;;4.85;;
43883;SDS011;71973;52.018;5.810;2023-09-08T07:52:47;8.70;;;5.00;;
43883;SDS011;71973;52.018;5.810;2023-09-08T07:55:14;6.05;;;4.88;;
43883;SDS011;71973;52.018;5.810;2023-09-08T07:57:41;8.52;;;5.60;;
43883;SDS011;71973;52.018;5.810;2023-09-08T08:00:08;8.90;;;5.18;;
43883;SDS011;71973;52.018;5.810;2023-09-08T08:02:37;9.20;;;5.18;;
43883;SDS011;71973;52.018;5.810;2023-09-08T08:05:03;5.72;;;4.55;;
43883;SDS011;71973;52.018;5.810;2023-09-08T08:07:29;6.53;;;4.85;;
43883;SDS011;71973;52.018;5.810;2023-09-08T08:09:55;6.05;;;4.60;;
43883;SDS011;71973;52.018;5.810;2023-09-08T08:12:21;12.75;;;5.28;;
43883;SDS011;71973;52.018;5.810;2023-09-08T08:14:47;11.10;;;5.47;;
43883;SDS011;71973;52.018;5.810;2023-09-08T08:17:13;7.35;;;5.25;;
43883;SDS011;71973;52.018;5.810;2023-09-08T08:19:42;8.43;;;4.72;;
43883;SDS011;71973;52.018;5.810;2023-09-08T08:22:08;7.75;;;4.78;;
43883;SDS011;71973;52.018;5.810;2023-09-08T08:24:34;5.68;;;4.85;;
43883;SDS011;71973;52.018;5.810;2023-09-08T08:27:00;5.75;;;4.70;;
43883;SDS011;71973;52.018;5.810;2023-09-08T08:29:26;7.10;;;4.45;;
43883;SDS011;71973;52.018;5.810;2023-09-08T08:31:52;7.95;;;5.10;;
43883;SDS011;71973;52.018;5.810;2023-09-08T08:34:18;6.03;;;4.53;;
43883;SDS011;71973;52.018;5.810;2023-09-08T08:36:44;6.78;;;4.90;;
43883;SDS011;71973;52.018;5.810;2023-09-08T08:39:10;6.65;;;4.78;;
43883;SDS011;71973;52.018;5.810;2023-09-08T08:41:36;6.60;;;4.55;;
43883;SDS011;71973;52.018;5.810;2023-09-08T08:44:05;5.80;;;4.80;;
43883;SDS011;71973;52.018;5.810;2023-09-08T08:46:32;6.18;;;4.95;;
43883;SDS011;71973;52.018;5.810;2023-09-08T08:48:59;5.38;;;4.53;;
43883;SDS011;71973;52.018;5.810;2023-09-08T08:51:26;9.95;;;4.68;;
43883;SDS011;71973;52.018;5.810;2023-09-08T08:53:54;9.77;;;4.88;;
43883;SDS011;71973;52.018;5.810;2023-09-08T08:56:20;5.38;;;4.10;;
43883;SDS011;71973;52.018;5.810;2023-09-08T08:58:46;6.18;;;4.53;;
43883;SDS011;71973;52.018;5.810;2023-09-08T09:01:12;5.38;;;4.75;;
43883;SDS011;71973;52.018;5.810;2023-09-08T09:03:38;6.28;;;4.28;;
43883;SDS011;71973;52.018;5.810;2023-09-08T09:06:05;6.15;;;4.75;;
43883;SDS011;71973;52.018;5.810;2023-09-08T09:08:32;5.07;;;4.47;;
43883;SDS011;71973;52.018;5.810;2023-09-08T09:10:58;7.82;;;4.97;;
43883;SDS011;71973;52.018;5.810;2023-09-08T09:13:24;6.13;;;4.30;;
43883;SDS011;71973;52.018;5.810;2023-09-08T09:15:50;5.53;;;4.50;;
43883;SDS011;71973;52.018;5.810;2023-09-08T09:18:16;7.05;;;4.53;;
43883;SDS011;71973;52.018;5.810;2023-09-08T09:20:52;4.90;;;4.00;;
43883;SDS011;71973;52.018;5.810;2023-09-08T09:23:34;6.38;;;4.63;;
43883;SDS011;71973;52.018;5.810;2023-09-08T09:26:01;7.00;;;5.00;;
43883;SDS011;71973;52.018;5.810;2023-09-08T09:28:28;9.45;;;4.43;;
43883;SDS011;71973;52.018;5.810;2023-09-08T09:30:55;6.15;;;4.38;;
43883;SDS011;71973;52.018;5.810;2023-09-08T09:35:47;7.20;;;4.63;;
43883;SDS011;71973;52.018;5.810;2023-09-08T09:38:14;5.18;;;4.18;;
43883;SDS011;71973;52.018;5.810;2023-09-08T09:40:41;6.15;;;4.38;;
43883;SDS011;71973;52.018;5.810;2023-09-08T09:43:08;4.47;;;4.03;;
43883;SDS011;71973;52.018;5.810;2023-09-08T09:48:00;5.97;;;4.40;;
43883;SDS011;71973;52.018;5.810;2023-09-08T09:50:28;6.28;;;4.18;;
43883;SDS011;71973;52.018;5.810;2023-09-08T09:52:56;5.90;;;4.43;;
43883;SDS011;71973;52.018;5.810;2023-09-08T09:55:23;5.10;;;4.22;;
43883;SDS011;71973;52.018;5.810;2023-09-08T09:57:49;7.50;;;4.75;;
43883;SDS011;71973;52.018;5.810;2023-09-08T10:00:16;8.88;;;4.13;;
43883;SDS011;71973;52.018;5.810;2023-09-08T10:02:44;8.50;;;4.63;;
43883;SDS011;71973;52.018;5.810;2023-09-08T10:05:11;7.57;;;4.47;;
43883;SDS011;71973;52.018;5.810;2023-09-08T10:07:39;4.43;;;3.97;;
43883;SDS011;71973;52.018;5.810;2023-09-08T10:10:06;5.03;;;4.15;;
43883;SDS011;71973;52.018;5.810;2023-09-08T10:14:58;5.05;;;3.97;;
43883;SDS011;71973;52.018;5.810;2023-09-08T10:17:24;5.10;;;4.20;;
43883;SDS011;71973;52.018;5.810;2023-09-08T10:19:53;4.97;;;3.78;;
43883;SDS011;71973;52.018;5.810;2023-09-08T10:22:23;4.55;;;3.90;;
43883;SDS011;71973;52.018;5.810;2023-09-08T10:24:52;5.10;;;4.13;;
43883;SDS011;71973;52.018;5.810;2023-09-08T10:27:19;5.60;;;3.95;;
43883;SDS011;71973;52.018;5.810;2023-09-08T10:29:48;6.55;;;4.68;;
43883;SDS011;71973;52.018;5.810;2023-09-08T10:32:15;4.43;;;3.80;;
43883;SDS011;71973;52.018;5.810;2023-09-08T10:34:41;3.97;;;3.40;;
43883;SDS011;71973;52.018;5.810;2023-09-08T10:37:21;5.20;;;3.80;;
43883;SDS011;71973;52.018;5.810;2023-09-08T10:39:49;5.95;;;4.07;;
43883;SDS011;71973;52.018;5.810;2023-09-08T10:47:19;4.55;;;3.88;;
43883;SDS011;71973;52.018;5.810;2023-09-08T10:49:45;4.63;;;3.53;;
43883;SDS011;71973;52.018;5.810;2023-09-08T10:52:12;5.68;;;3.97;;
43883;SDS011;71973;52.018;5.810;2023-09-08T10:54:41;5.57;;;4.15;;
43883;SDS011;71973;52.018;5.810;2023-09-08T10:57:14;4.35;;;3.80;;
43883;SDS011;71973;52.018;5.810;2023-09-08T11:05:00;5.18;;;4.18;;
43883;SDS011;71973;52.018;5.810;2023-09-08T11:07:26;4.47;;;3.80;;
43883;SDS011;71973;52.018;5.810;2023-09-08T11:09:53;4.93;;;3.80;;
43883;SDS011;71973;52.018;5.810;2023-09-08T11:12:18;4.93;;;4.00;;
43883;SDS011;71973;52.018;5.810;2023-09-08T11:14:48;5.45;;;3.60;;
43883;SDS011;71973;52.018;5.810;2023-09-08T11:17:14;4.13;;;3.55;;
43883;SDS011;71973;52.018;5.810;2023-09-08T11:19:44;5.10;;;3.88;;
43883;SDS011;71973;52.018;5.810;2023-09-08T11:22:10;6.07;;;3.88;;
43883;SDS011;71973;52.018;5.810;2023-09-08T11:24:36;5.53;;;3.65;;
43883;SDS011;71973;52.018;5.810;2023-09-08T11:27:02;5.07;;;3.78;;
43883;SDS011;71973;52.018;5.810;2023-09-08T11:29:28;3.75;;;3.28;;
43883;SDS011;71973;52.018;5.810;2023-09-08T11:31:54;5.00;;;3.42;;
43883;SDS011;71973;52.018;5.810;2023-09-08T11:34:20;5.78;;;4.07;;
43883;SDS011;71973;52.018;5.810;2023-09-08T11:36:46;5.65;;;4.00;;
43883;SDS011;71973;52.018;5.810;2023-09-08T11:39:13;5.47;;;3.92;;
43883;SDS011;71973;52.018;5.810;2023-09-08T11:41:40;3.95;;;3.50;;
43883;SDS011;71973;52.018;5.810;2023-09-08T11:44:06;6.35;;;3.53;;
43883;SDS011;71973;52.018;5.810;2023-09-08T11:46:32;4.43;;;3.70;;
43883;SDS011;71973;52.018;5.810;2023-09-08T11:48:58;4.80;;;3.78;;
43883;SDS011;71973;52.018;5.810;2023-09-08T11:51:25;4.18;;;3.50;;
43883;SDS011;71973;52.018;5.810;2023-09-08T11:53:51;4.63;;;3.42;;
43883;SDS011;71973;52.018;5.810;2023-09-08T11:58:43;4.93;;;3.40;;
43883;SDS011;71973;52.018;5.810;2023-09-08T12:01:10;3.50;;;3.20;;
43883;SDS011;71973;52.018;5.810;2023-09-08T12:03:50;4.18;;;3.03;;
43883;SDS011;71973;52.018;5.810;2023-09-08T12:06:16;5.53;;;3.30;;
43883;SDS011;71973;52.018;5.810;2023-09-08T12:08:42;3.95;;;3.53;;
43883;SDS011;71973;52.018;5.810;2023-09-08T12:11:10;5.70;;;3.90;;
43883;SDS011;71973;52.018;5.810;2023-09-08T12:13:35;3.70;;;3.13;;
43883;SDS011;71973;52.018;5.810;2023-09-08T12:16:01;4.18;;;3.33;;
43883;SDS011;71973;52.018;5.810;2023-09-08T12:18:38;4.60;;;3.50;;
43883;SDS011;71973;52.018;5.810;2023-09-08T12:21:04;4.00;;;3.25;;
43883;SDS011;71973;52.018;5.810;2023-09-08T12:23:30;3.97;;;3.10;;
43883;SDS011;71973;52.018;5.810;2023-09-08T12:25:56;4.35;;;3.20;;
43883;SDS011;71973;52.018;5.810;2023-09-08T12:30:49;4.60;;;3.28;;
43883;SDS011;71973;52.018;5.810;2023-09-08T12:33:15;5.93;;;3.67;;
43883;SDS011;71973;52.018;5.810;2023-09-08T12:35:43;4.85;;;3.00;;
43883;SDS011;71973;52.018;5.810;2023-09-08T12:38:09;7.43;;;3.33;;
43883;SDS011;71973;52.018;5.810;2023-09-08T12:40:35;4.93;;;3.20;;
43883;SDS011;71973;52.018;5.810;2023-09-08T12:43:02;4.18;;;3.22;;
43883;SDS011;71973;52.018;5.810;2023-09-08T12:45:28;4.28;;;3.38;;
43883;SDS011;71973;52.018;5.810;2023-09-08T12:47:57;4.60;;;3.67;;
43883;SDS011;71973;52.018;5.810;2023-09-08T12:50:23;4.35;;;3.30;;
43883;SDS011;71973;52.018;5.810;2023-09-08T12:52:50;4.20;;;3.20;;
43883;SDS011;71973;52.018;5.810;2023-09-08T12:55:15;5.15;;;3.80;;
43883;SDS011;71973;52.018;5.810;2023-09-08T12:57:41;4.20;;;2.88;;
43883;SDS011;71973;52.018;5.810;2023-09-08T13:00:07;5.53;;;3.20;;
43883;SDS011;71973;52.018;5.810;2023-09-08T13:02:33;7.47;;;3.58;;
43883;SDS011;71973;52.018;5.810;2023-09-08T13:04:59;4.03;;;3.22;;
43883;SDS011;71973;52.018;5.810;2023-09-08T13:07:26;6.32;;;3.38;;
43883;SDS011;71973;52.018;5.810;2023-09-08T13:09:51;4.95;;;3.72;;
43883;SDS011;71973;52.018;5.810;2023-09-08T13:12:17;4.30;;;3.28;;
43883;SDS011;71973;52.018;5.810;2023-09-08T13:14:43;5.32;;;3.05;;
43883;SDS011;71973;52.018;5.810;2023-09-08T13:17:10;3.95;;;3.08;;
43883;SDS011;71973;52.018;5.810;2023-09-08T13:19:36;3.65;;;3.00;;
43883;SDS011;71973;52.018;5.810;2023-09-08T13:22:03;4.78;;;3.22;;
43883;SDS011;71973;52.018;5.810;2023-09-08T13:24:29;5.85;;;3.50;;
43883;SDS011;71973;52.018;5.810;2023-09-08T13:29:21;4.40;;;3.30;;
43883;SDS011;71973;52.018;5.810;2023-09-08T13:31:47;4.67;;;3.40;;
43883;SDS011;71973;52.018;5.810;2023-09-08T13:34:13;4.53;;;3.55;;
43883;SDS011;71973;52.018;5.810;2023-09-08T13:36:38;3.75;;;3.40;;
43883;SDS011;71973;52.018;5.810;2023-09-08T13:39:04;4.40;;;3.57;;
43883;SDS011;71973;52.018;5.810;2023-09-08T13:44:18;3.80;;;3.40;;
43883;SDS011;71973;52.018;5.810;2023-09-08T13:46:44;4.65;;;3.85;;
43883;SDS011;71973;52.018;5.810;2023-09-08T13:49:14;5.15;;;3.40;;
43883;SDS011;71973;52.018;5.810;2023-09-08T13:51:39;5.60;;;3.40;;
43883;SDS011;71973;52.018;5.810;2023-09-08T13:54:06;5.22;;;3.38;;
43883;SDS011;71973;52.018;5.810;2023-09-08T13:56:32;5.05;;;3.30;;
43883;SDS011;71973;52.018;5.810;2023-09-08T13:58:58;4.93;;;3.47;;
43883;SDS011;71973;52.018;5.810;2023-09-08T14:01:23;7.35;;;3.45;;
43883;SDS011;71973;52.018;5.810;2023-09-08T14:03:49;6.13;;;3.58;;
43883;SDS011;71973;52.018;5.810;2023-09-08T14:06:17;5.88;;;3.22;;
43883;SDS011;71973;52.018;5.810;2023-09-08T14:08:43;4.30;;;3.35;;
43883;SDS011;71973;52.018;5.810;2023-09-08T14:11:09;4.00;;;3.50;;
43883;SDS011;71973;52.018;5.810;2023-09-08T14:13:34;4.40;;;3.00;;
43883;SDS011;71973;52.018;5.810;2023-09-08T14:16:00;5.43;;;3.45;;
43883;SDS011;71973;52.018;5.810;2023-09-08T14:18:25;3.40;;;3.00;;
43883;SDS011;71973;52.018;5.810;2023-09-08T14:20:51;3.53;;;2.87;;
43883;SDS011;71973;52.018;5.810;2023-09-08T14:23:16;5.80;;;3.40;;
43883;SDS011;71973;52.018;5.810;2023-09-08T14:25:42;7.63;;;3.73;;
43883;SDS011;71973;52.018;5.810;2023-09-08T14:28:07;5.03;;;3.50;;
43883;SDS011;71973;52.018;5.810;2023-09-08T14:30:34;5.50;;;3.42;;
43883;SDS011;71973;52.018;5.810;2023-09-08T14:33:00;4.30;;;3.20;;
43883;SDS011;71973;52.018;5.810;2023-09-08T14:35:25;5.05;;;3.67;;
43883;SDS011;71973;52.018;5.810;2023-09-08T14:37:51;4.57;;;3.40;;
43883;SDS011;71973;52.018;5.810;2023-09-08T14:40:17;4.95;;;2.92;;
43883;SDS011;71973;52.018;5.810;2023-09-08T14:42:42;4.93;;;3.97;;
43883;SDS011;71973;52.018;5.810;2023-09-08T14:45:08;3.72;;;3.30;;
43883;SDS011;71973;52.018;5.810;2023-09-08T14:47:35;3.78;;;3.38;;
43883;SDS011;71973;52.018;5.810;2023-09-08T14:50:00;4.30;;;3.40;;
43883;SDS011;71973;52.018;5.810;2023-09-08T14:52:28;3.53;;;3.22;;
43883;SDS011;71973;52.018;5.810;2023-09-08T14:54:54;5.05;;;3.60;;
43883;SDS011;71973;52.018;5.810;2023-09-08T14:57:20;4.80;;;3.70;;
43883;SDS011;71973;52.018;5.810;2023-09-08T14:59:45;3.70;;;3.30;;
43883;SDS011;71973;52.018;5.810;2023-09-08T15:02:11;4.57;;;3.13;;
43883;SDS011;71973;52.018;5.810;2023-09-08T15:04:37;4.57;;;3.60;;
43883;SDS011;71973;52.018;5.810;2023-09-08T15:07:03;4.13;;;3.42;;
43883;SDS011;71973;52.018;5.810;2023-09-08T15:09:29;4.65;;;3.58;;
43883;SDS011;71973;52.018;5.810;2023-09-08T15:11:55;4.85;;;2.75;;
43883;SDS011;71973;52.018;5.810;2023-09-08T15:14:21;4.07;;;3.35;;
43883;SDS011;71973;52.018;5.810;2023-09-08T15:16:47;5.03;;;3.55;;
43883;SDS011;71973;52.018;5.810;2023-09-08T15:19:13;5.30;;;3.25;;
43883;SDS011;71973;52.018;5.810;2023-09-08T15:21:39;4.13;;;3.50;;
43883;SDS011;71973;52.018;5.810;2023-09-08T15:24:05;3.78;;;3.40;;
43883;SDS011;71973;52.018;5.810;2023-09-08T15:26:31;5.70;;;3.42;;
43883;SDS011;71973;52.018;5.810;2023-09-08T15:28:57;4.30;;;3.22;;
43883;SDS011;71973;52.018;5.810;2023-09-08T15:31:24;4.18;;;3.22;;